sensor_id;sensor_type;location;lat;lon;timestamp;P1;durP1;ratioP1;P2;durP2;ratioP2
65289;SDS011;51893;59.754;10.110;2023-06-14T00:00:18;7.60;;;2.90;;
65289;SDS011;51893;59.754;10.110;2023-06-14T00:03:07;2.80;;;2.30;;
65289;SDS011;51893;59.754;10.110;2023-06-14T00:05:40;4.30;;;2.50;;
65289;SDS011;51893;59.754;10.110;2023-06-14T00:08:11;5.20;;;2.70;;
65289;SDS011;51893;59.754;10.110;2023-06-14T00:10:39;3.00;;;2.30;;
65289;SDS011;51893;59.754;10.110;2023-06-14T00:13:10;8.00;;;2.40;;
65289;SDS011;51893;59.754;10.110;2023-06-14T00:15:39;4.80;;;2.60;;
65289;SDS011;51893;59.754;10.110;2023-06-14T00:18:08;3.10;;;2.50;;
65289;SDS011;51893;59.754;10.110;2023-06-14T00:20:39;4.30;;;2.40;;
65289;SDS011;51893;59.754;10.110;2023-06-14T00:23:09;6.80;;;2.70;;
65289;SDS011;51893;59.754;10.110;2023-06-14T00:25:38;6.00;;;2.60;;
65289;SDS011;51893;59.754;10.110;2023-06-14T00:28:06;2.50;;;2.30;;
65289;SDS011;51893;59.754;10.110;2023-06-14T00:30:33;4.40;;;2.60;;
65289;SDS011;51893;59.754;10.110;2023-06-14T00:33:02;3.10;;;2.30;;
65289;SDS011;51893;59.754;10.110;2023-06-14T00:35:30;2.50;;;2.30;;
65289;SDS011;51893;59.754;10.110;2023-06-14T00:38:00;3.30;;;3.00;;
65289;SDS011;51893;59.754;10.110;2023-06-14T00:40:29;3.80;;;2.70;;
65289;SDS011;51893;59.754;10.110;2023-06-14T00:42:57;4.10;;;2.60;;
65289;SDS011;51893;59.754;10.110;2023-06-14T00:45:25;4.30;;;2.80;;
65289;SDS011;51893;59.754;10.110;2023-06-14T00:47:53;3.30;;;2.80;;
65289;SDS011;51893;59.754;10.110;2023-06-14T00:50:23;6.20;;;2.40;;
65289;SDS011;51893;59.754;10.110;2023-06-14T00:52:51;3.70;;;2.70;;
65289;SDS011;51893;59.754;10.110;2023-06-14T00:55:20;4.50;;;2.90;;
65289;SDS011;51893;59.754;10.110;2023-06-14T00:57:49;5.20;;;2.90;;
65289;SDS011;51893;59.754;10.110;2023-06-14T01:00:17;3.60;;;3.00;;
65289;SDS011;51893;59.754;10.110;2023-06-14T01:02:45;8.60;;;3.40;;
65289;SDS011;51893;59.754;10.110;2023-06-14T01:05:16;4.40;;;2.80;;
65289;SDS011;51893;59.754;10.110;2023-06-14T01:08:01;6.30;;;2.60;;
65289;SDS011;51893;59.754;10.110;2023-06-14T01:10:53;2.60;;;2.10;;
65289;SDS011;51893;59.754;10.110;2023-06-14T01:13:38;5.90;;;2.60;;
65289;SDS011;51893;59.754;10.110;2023-06-14T01:18:36;2.90;;;2.60;;
65289;SDS011;51893;59.754;10.110;2023-06-14T01:21:05;4.00;;;3.60;;
65289;SDS011;51893;59.754;10.110;2023-06-14T01:23:35;4.80;;;3.40;;
65289;SDS011;51893;59.754;10.110;2023-06-14T01:26:03;5.40;;;2.80;;
65289;SDS011;51893;59.754;10.110;2023-06-14T01:28:31;6.90;;;2.80;;
65289;SDS011;51893;59.754;10.110;2023-06-14T01:31:02;4.10;;;2.60;;
65289;SDS011;51893;59.754;10.110;2023-06-14T01:33:33;6.60;;;2.70;;
65289;SDS011;51893;59.754;10.110;2023-06-14T01:36:08;7.50;;;3.00;;
65289;SDS011;51893;59.754;10.110;2023-06-14T01:38:37;5.30;;;2.90;;
65289;SDS011;51893;59.754;10.110;2023-06-14T01:41:06;5.20;;;3.10;;
65289;SDS011;51893;59.754;10.110;2023-06-14T01:43:34;3.00;;;2.80;;
65289;SDS011;51893;59.754;10.110;2023-06-14T01:46:05;2.70;;;2.50;;
65289;SDS011;51893;59.754;10.110;2023-06-14T01:48:34;5.40;;;2.80;;
65289;SDS011;51893;59.754;10.110;2023-06-14T01:51:03;5.10;;;2.70;;
65289;SDS011;51893;59.754;10.110;2023-06-14T01:53:31;2.30;;;2.00;;
65289;SDS011;51893;59.754;10.110;2023-06-14T01:55:58;4.00;;;2.60;;
65289;SDS011;51893;59.754;10.110;2023-06-14T01:58:27;6.00;;;2.70;;
65289;SDS011;51893;59.754;10.110;2023-06-14T02:00:55;3.50;;;3.00;;
65289;SDS011;51893;59.754;10.110;2023-06-14T02:03:24;6.90;;;2.50;;
65289;SDS011;51893;59.754;10.110;2023-06-14T02:05:52;7.40;;;2.80;;
65289;SDS011;51893;59.754;10.110;2023-06-14T02:08:22;7.20;;;3.10;;
65289;SDS011;51893;59.754;10.110;2023-06-14T02:10:51;3.40;;;2.70;;
65289;SDS011;51893;59.754;10.110;2023-06-14T02:13:20;4.50;;;2.90;;
65289;SDS011;51893;59.754;10.110;2023-06-14T02:15:48;5.90;;;2.60;;
65289;SDS011;51893;59.754;10.110;2023-06-14T02:18:21;3.80;;;2.90;;
65289;SDS011;51893;59.754;10.110;2023-06-14T02:20:50;5.80;;;2.90;;
65289;SDS011;51893;59.754;10.110;2023-06-14T02:23:20;4.60;;;2.70;;
65289;SDS011;51893;59.754;10.110;2023-06-14T02:25:48;5.30;;;2.90;;
65289;SDS011;51893;59.754;10.110;2023-06-14T02:28:17;4.10;;;2.90;;
65289;SDS011;51893;59.754;10.110;2023-06-14T02:30:45;4.40;;;2.90;;
65289;SDS011;51893;59.754;10.110;2023-06-14T02:33:13;8.90;;;3.10;;
65289;SDS011;51893;59.754;10.110;2023-06-14T02:35:41;5.50;;;3.90;;
65289;SDS011;51893;59.754;10.110;2023-06-14T02:38:10;3.30;;;2.80;;
65289;SDS011;51893;59.754;10.110;2023-06-14T02:40:39;5.60;;;3.30;;
65289;SDS011;51893;59.754;10.110;2023-06-14T02:43:09;3.20;;;3.00;;
65289;SDS011;51893;59.754;10.110;2023-06-14T02:45:37;5.80;;;2.80;;
65289;SDS011;51893;59.754;10.110;2023-06-14T02:48:05;9.10;;;3.10;;
65289;SDS011;51893;59.754;10.110;2023-06-14T02:50:33;4.80;;;3.30;;
65289;SDS011;51893;59.754;10.110;2023-06-14T02:53:01;6.50;;;3.20;;
65289;SDS011;51893;59.754;10.110;2023-06-14T02:55:30;7.80;;;3.00;;
65289;SDS011;51893;59.754;10.110;2023-06-14T02:57:59;3.80;;;3.20;;
65289;SDS011;51893;59.754;10.110;2023-06-14T03:00:27;3.60;;;3.30;;
65289;SDS011;51893;59.754;10.110;2023-06-14T03:02:58;4.50;;;3.10;;
65289;SDS011;51893;59.754;10.110;2023-06-14T03:05:29;4.30;;;3.10;;
65289;SDS011;51893;59.754;10.110;2023-06-14T03:07:59;7.20;;;2.60;;
65289;SDS011;51893;59.754;10.110;2023-06-14T03:10:27;5.80;;;3.00;;
65289;SDS011;51893;59.754;10.110;2023-06-14T03:12:57;7.60;;;3.30;;
65289;SDS011;51893;59.754;10.110;2023-06-14T03:15:24;4.90;;;2.70;;
65289;SDS011;51893;59.754;10.110;2023-06-14T03:17:52;4.20;;;2.90;;
65289;SDS011;51893;59.754;10.110;2023-06-14T03:20:21;5.60;;;3.30;;
65289;SDS011;51893;59.754;10.110;2023-06-14T03:22:49;8.10;;;3.10;;
65289;SDS011;51893;59.754;10.110;2023-06-14T03:25:18;7.50;;;3.20;;
65289;SDS011;51893;59.754;10.110;2023-06-14T03:30:14;5.20;;;3.60;;
65289;SDS011;51893;59.754;10.110;2023-06-14T03:32:42;7.50;;;3.60;;
65289;SDS011;51893;59.754;10.110;2023-06-14T03:35:10;6.60;;;3.40;;
65289;SDS011;51893;59.754;10.110;2023-06-14T03:37:45;6.10;;;2.90;;
65289;SDS011;51893;59.754;10.110;2023-06-14T03:40:17;5.00;;;3.20;;
65289;SDS011;51893;59.754;10.110;2023-06-14T03:42:46;4.80;;;3.00;;
65289;SDS011;51893;59.754;10.110;2023-06-14T03:45:13;5.50;;;3.30;;
65289;SDS011;51893;59.754;10.110;2023-06-14T03:47:42;4.40;;;2.90;;
65289;SDS011;51893;59.754;10.110;2023-06-14T03:50:10;6.70;;;3.50;;
65289;SDS011;51893;59.754;10.110;2023-06-14T03:52:38;8.00;;;3.70;;
65289;SDS011;51893;59.754;10.110;2023-06-14T03:55:07;13.10;;;3.70;;
65289;SDS011;51893;59.754;10.110;2023-06-14T03:57:41;4.10;;;3.70;;
65289;SDS011;51893;59.754;10.110;2023-06-14T04:00:10;6.50;;;4.10;;
65289;SDS011;51893;59.754;10.110;2023-06-14T04:02:39;7.40;;;4.20;;
65289;SDS011;51893;59.754;10.110;2023-06-14T04:05:07;6.70;;;3.50;;
65289;SDS011;51893;59.754;10.110;2023-06-14T04:07:36;9.50;;;3.80;;
65289;SDS011;51893;59.754;10.110;2023-06-14T04:10:08;5.60;;;3.70;;
65289;SDS011;51893;59.754;10.110;2023-06-14T04:12:36;5.50;;;3.50;;
65289;SDS011;51893;59.754;10.110;2023-06-14T04:15:05;12.90;;;4.10;;
65289;SDS011;51893;59.754;10.110;2023-06-14T04:17:48;9.00;;;3.70;;
65289;SDS011;51893;59.754;10.110;2023-06-14T04:20:17;10.00;;;4.20;;
65289;SDS011;51893;59.754;10.110;2023-06-14T04:22:45;11.50;;;3.90;;
65289;SDS011;51893;59.754;10.110;2023-06-14T04:25:13;5.00;;;3.90;;
65289;SDS011;51893;59.754;10.110;2023-06-14T04:27:42;3.70;;;3.40;;
65289;SDS011;51893;59.754;10.110;2023-06-14T04:30:11;8.60;;;4.40;;
65289;SDS011;51893;59.754;10.110;2023-06-14T04:32:40;7.10;;;4.30;;
65289;SDS011;51893;59.754;10.110;2023-06-14T04:35:10;4.30;;;3.80;;
65289;SDS011;51893;59.754;10.110;2023-06-14T04:37:39;5.20;;;3.80;;
65289;SDS011;51893;59.754;10.110;2023-06-14T04:40:10;11.00;;;4.10;;
65289;SDS011;51893;59.754;10.110;2023-06-14T04:42:39;6.80;;;4.20;;
65289;SDS011;51893;59.754;10.110;2023-06-14T04:45:09;13.10;;;4.10;;
65289;SDS011;51893;59.754;10.110;2023-06-14T04:47:37;8.40;;;3.50;;
65289;SDS011;51893;59.754;10.110;2023-06-14T04:50:06;11.20;;;4.40;;
65289;SDS011;51893;59.754;10.110;2023-06-14T04:52:34;11.90;;;4.60;;
65289;SDS011;51893;59.754;10.110;2023-06-14T04:55:03;4.90;;;4.30;;
65289;SDS011;51893;59.754;10.110;2023-06-14T04:57:32;24.60;;;4.30;;
65289;SDS011;51893;59.754;10.110;2023-06-14T05:00:01;11.50;;;4.20;;
65289;SDS011;51893;59.754;10.110;2023-06-14T05:02:32;7.50;;;3.90;;
65289;SDS011;51893;59.754;10.110;2023-06-14T05:05:00;14.90;;;3.80;;
65289;SDS011;51893;59.754;10.110;2023-06-14T05:07:30;9.90;;;4.00;;
65289;SDS011;51893;59.754;10.110;2023-06-14T05:09:58;4.70;;;2.90;;
65289;SDS011;51893;59.754;10.110;2023-06-14T05:12:25;6.40;;;3.50;;
65289;SDS011;51893;59.754;10.110;2023-06-14T05:14:54;7.90;;;4.10;;
65289;SDS011;51893;59.754;10.110;2023-06-14T05:17:22;9.40;;;3.90;;
65289;SDS011;51893;59.754;10.110;2023-06-14T05:19:50;5.30;;;4.00;;
65289;SDS011;51893;59.754;10.110;2023-06-14T05:22:18;6.40;;;4.00;;
65289;SDS011;51893;59.754;10.110;2023-06-14T05:24:46;19.90;;;5.00;;
65289;SDS011;51893;59.754;10.110;2023-06-14T05:27:16;9.10;;;3.40;;
65289;SDS011;51893;59.754;10.110;2023-06-14T05:29:44;13.30;;;4.60;;
65289;SDS011;51893;59.754;10.110;2023-06-14T05:32:14;10.30;;;4.20;;
65289;SDS011;51893;59.754;10.110;2023-06-14T05:34:43;6.70;;;4.20;;
65289;SDS011;51893;59.754;10.110;2023-06-14T05:37:11;8.30;;;4.20;;
65289;SDS011;51893;59.754;10.110;2023-06-14T05:39:39;5.00;;;4.30;;
65289;SDS011;51893;59.754;10.110;2023-06-14T05:42:07;8.60;;;4.40;;
65289;SDS011;51893;59.754;10.110;2023-06-14T05:44:35;5.70;;;3.60;;
65289;SDS011;51893;59.754;10.110;2023-06-14T05:47:03;8.50;;;3.90;;
65289;SDS011;51893;59.754;10.110;2023-06-14T05:49:31;8.30;;;4.30;;
65289;SDS011;51893;59.754;10.110;2023-06-14T05:51:59;14.90;;;4.20;;
65289;SDS011;51893;59.754;10.110;2023-06-14T05:54:27;15.60;;;5.20;;
65289;SDS011;51893;59.754;10.110;2023-06-14T05:56:55;18.60;;;4.20;;
65289;SDS011;51893;59.754;10.110;2023-06-14T05:59:29;9.80;;;4.60;;
65289;SDS011;51893;59.754;10.110;2023-06-14T06:01:57;13.70;;;4.60;;
65289;SDS011;51893;59.754;10.110;2023-06-14T06:04:25;10.30;;;4.30;;
65289;SDS011;51893;59.754;10.110;2023-06-14T06:06:54;7.40;;;3.80;;
65289;SDS011;51893;59.754;10.110;2023-06-14T06:09:22;9.60;;;4.10;;
65289;SDS011;51893;59.754;10.110;2023-06-14T06:11:49;13.70;;;4.20;;
65289;SDS011;51893;59.754;10.110;2023-06-14T06:14:21;7.80;;;4.60;;
65289;SDS011;51893;59.754;10.110;2023-06-14T06:16:50;6.80;;;4.20;;
65289;SDS011;51893;59.754;10.110;2023-06-14T06:19:20;7.20;;;3.30;;
65289;SDS011;51893;59.754;10.110;2023-06-14T06:21:48;5.30;;;3.90;;
65289;SDS011;51893;59.754;10.110;2023-06-14T06:24:17;10.60;;;4.30;;
65289;SDS011;51893;59.754;10.110;2023-06-14T06:26:44;9.70;;;4.00;;
65289;SDS011;51893;59.754;10.110;2023-06-14T06:29:12;6.80;;;3.70;;
65289;SDS011;51893;59.754;10.110;2023-06-14T06:31:41;13.40;;;4.70;;
65289;SDS011;51893;59.754;10.110;2023-06-14T06:34:09;7.10;;;4.00;;
65289;SDS011;51893;59.754;10.110;2023-06-14T06:36:37;8.80;;;4.10;;
65289;SDS011;51893;59.754;10.110;2023-06-14T06:39:05;11.90;;;4.20;;
65289;SDS011;51893;59.754;10.110;2023-06-14T06:41:38;15.40;;;4.60;;
65289;SDS011;51893;59.754;10.110;2023-06-14T06:44:08;8.30;;;3.90;;
65289;SDS011;51893;59.754;10.110;2023-06-14T06:46:38;9.50;;;4.10;;
65289;SDS011;51893;59.754;10.110;2023-06-14T06:49:09;4.50;;;3.80;;
65289;SDS011;51893;59.754;10.110;2023-06-14T06:51:43;12.70;;;4.10;;
65289;SDS011;51893;59.754;10.110;2023-06-14T06:54:12;5.20;;;3.90;;
65289;SDS011;51893;59.754;10.110;2023-06-14T06:56:40;10.20;;;4.10;;
65289;SDS011;51893;59.754;10.110;2023-06-14T06:59:08;13.50;;;4.60;;
65289;SDS011;51893;59.754;10.110;2023-06-14T07:01:36;10.40;;;4.50;;
65289;SDS011;51893;59.754;10.110;2023-06-14T07:04:04;8.10;;;4.10;;
65289;SDS011;51893;59.754;10.110;2023-06-14T07:06:32;11.70;;;4.00;;
65289;SDS011;51893;59.754;10.110;2023-06-14T07:09:00;10.40;;;4.00;;
65289;SDS011;51893;59.754;10.110;2023-06-14T07:11:29;11.50;;;4.50;;
65289;SDS011;51893;59.754;10.110;2023-06-14T07:13:57;4.60;;;3.80;;
65289;SDS011;51893;59.754;10.110;2023-06-14T07:16:25;10.20;;;4.00;;
65289;SDS011;51893;59.754;10.110;2023-06-14T07:18:54;10.40;;;4.20;;
65289;SDS011;51893;59.754;10.110;2023-06-14T07:21:22;10.60;;;3.60;;
65289;SDS011;51893;59.754;10.110;2023-06-14T07:23:50;7.10;;;3.90;;
65289;SDS011;51893;59.754;10.110;2023-06-14T07:26:18;5.50;;;3.60;;
65289;SDS011;51893;59.754;10.110;2023-06-14T07:28:47;4.90;;;3.20;;
65289;SDS011;51893;59.754;10.110;2023-06-14T07:31:16;8.80;;;3.40;;
65289;SDS011;51893;59.754;10.110;2023-06-14T07:33:46;7.50;;;3.70;;
65289;SDS011;51893;59.754;10.110;2023-06-14T07:36:14;12.70;;;3.60;;
65289;SDS011;51893;59.754;10.110;2023-06-14T07:38:41;8.10;;;3.80;;
65289;SDS011;51893;59.754;10.110;2023-06-14T07:41:09;9.60;;;3.70;;
65289;SDS011;51893;59.754;10.110;2023-06-14T07:43:37;6.50;;;4.00;;
65289;SDS011;51893;59.754;10.110;2023-06-14T07:46:05;8.00;;;3.40;;
65289;SDS011;51893;59.754;10.110;2023-06-14T07:48:35;9.90;;;3.70;;
65289;SDS011;51893;59.754;10.110;2023-06-14T07:51:04;6.70;;;3.20;;
65289;SDS011;51893;59.754;10.110;2023-06-14T07:53:32;10.40;;;3.80;;
65289;SDS011;51893;59.754;10.110;2023-06-14T07:55:59;3.50;;;3.20;;
65289;SDS011;51893;59.754;10.110;2023-06-14T07:58:28;11.40;;;3.80;;
65289;SDS011;51893;59.754;10.110;2023-06-14T08:00:56;3.90;;;3.50;;
65289;SDS011;51893;59.754;10.110;2023-06-14T08:03:24;8.20;;;4.20;;
65289;SDS011;51893;59.754;10.110;2023-06-14T08:05:52;7.20;;;3.90;;
65289;SDS011;51893;59.754;10.110;2023-06-14T08:08:20;6.00;;;3.80;;
65289;SDS011;51893;59.754;10.110;2023-06-14T08:10:48;14.00;;;4.60;;
65289;SDS011;51893;59.754;10.110;2023-06-14T08:13:16;9.10;;;3.80;;
65289;SDS011;51893;59.754;10.110;2023-06-14T08:15:44;12.70;;;4.10;;
65289;SDS011;51893;59.754;10.110;2023-06-14T08:18:12;9.30;;;3.40;;
65289;SDS011;51893;59.754;10.110;2023-06-14T08:20:41;9.80;;;3.70;;
65289;SDS011;51893;59.754;10.110;2023-06-14T08:23:10;10.20;;;3.30;;
65289;SDS011;51893;59.754;10.110;2023-06-14T08:25:39;10.90;;;3.70;;
65289;SDS011;51893;59.754;10.110;2023-06-14T08:28:06;10.00;;;3.20;;
65289;SDS011;51893;59.754;10.110;2023-06-14T08:30:34;6.80;;;3.20;;
65289;SDS011;51893;59.754;10.110;2023-06-14T08:33:03;11.30;;;3.90;;
65289;SDS011;51893;59.754;10.110;2023-06-14T08:35:44;13.30;;;3.70;;
65289;SDS011;51893;59.754;10.110;2023-06-14T08:38:12;12.90;;;3.60;;
65289;SDS011;51893;59.754;10.110;2023-06-14T08:40:41;8.30;;;3.50;;
65289;SDS011;51893;59.754;10.110;2023-06-14T08:43:10;9.60;;;3.30;;
65289;SDS011;51893;59.754;10.110;2023-06-14T08:45:38;8.60;;;3.40;;
65289;SDS011;51893;59.754;10.110;2023-06-14T08:48:07;3.90;;;3.30;;
65289;SDS011;51893;59.754;10.110;2023-06-14T08:50:36;7.80;;;3.00;;
65289;SDS011;51893;59.754;10.110;2023-06-14T08:53:08;5.00;;;2.80;;
65289;SDS011;51893;59.754;10.110;2023-06-14T08:55:38;6.20;;;3.10;;
65289;SDS011;51893;59.754;10.110;2023-06-14T08:58:10;8.00;;;3.00;;
65289;SDS011;51893;59.754;10.110;2023-06-14T09:00:42;8.60;;;3.10;;
65289;SDS011;51893;59.754;10.110;2023-06-14T09:03:12;6.00;;;3.30;;
65289;SDS011;51893;59.754;10.110;2023-06-14T09:05:44;6.80;;;3.20;;
65289;SDS011;51893;59.754;10.110;2023-06-14T09:08:14;4.40;;;3.10;;
